Novosibirsk, Russia
Current Conditions -  °F | °C
As of 3:00 PM on Thursday 29 Jan 2015 (Local Time) from UNNT Reporting Station
Broken Clouds Broken Clouds  
Wind Chill: -3°   Ceiling: 20000
Heat Index: 12°   Visibility: 6mi
Dew Point:   Wind: 13mph
Humidity: 57%   Direction: 190°S
Pressure: 30.45"   Gusts: NA
Location:  55.04°N, 82.93°E
Report Text: UNNT 290800Z 19006MPS 9000 BKN200 M11/M18 Q1031 2581016016810160 NOSIG RMK QFE763/1018
Loading
Personal Weather Stations






























Interactive Weather Map New forecast layout! Learn more

10-Day Weather Forecast

Advertisements
Track Severe Weather on mobile